createdAt,value
2022-11-10T00:01:14.887Z,27.27
2022-11-10T00:03:42.031Z,27.05
2022-11-10T00:06:12.149Z,28.38
2022-11-10T00:08:40.209Z,25.85
2022-11-10T00:11:10.415Z,27.67
2022-11-10T00:14:01.706Z,26.70
2022-11-10T00:16:48.091Z,26.27
2022-11-10T00:19:23.740Z,25.27
2022-11-10T00:21:50.907Z,25.90
2022-11-10T00:24:17.896Z,25.55
2022-11-10T00:26:46.051Z,24.45
2022-11-10T00:29:14.540Z,25.45
2022-11-10T00:31:44.090Z,25.08
2022-11-10T00:34:17.804Z,25.35
2022-11-10T00:36:46.772Z,25.42
2022-11-10T00:39:14.970Z,23.38
2022-11-10T00:41:42.625Z,25.23
2022-11-10T00:44:11.628Z,26.30
2022-11-10T00:46:44.790Z,25.83
2022-11-10T00:49:19.086Z,26.48
2022-11-10T00:52:02.597Z,26.23
2022-11-10T00:54:35.575Z,25.63
2022-11-10T00:57:02.569Z,28.10
2022-11-10T00:59:29.592Z,27.20
2022-11-10T01:01:56.572Z,27.25
2022-11-10T01:04:25.625Z,26.98
2022-11-10T01:06:53.202Z,26.17
2022-11-10T01:09:23.214Z,26.10
2022-11-10T01:11:56.336Z,24.98
2022-11-10T01:14:40.504Z,26.35
2022-11-10T01:17:08.411Z,26.52
2022-11-10T01:19:38.621Z,26.35
2022-11-10T01:22:06.826Z,26.38
2022-11-10T01:24:33.982Z,26.15
2022-11-10T01:27:00.960Z,25.48
2022-11-10T01:29:31.930Z,27.05
2022-11-10T01:32:05.145Z,25.90
2022-11-10T01:34:39.455Z,25.98
2022-11-10T01:37:17.102Z,24.92
2022-11-10T01:39:47.078Z,23.90
2022-11-10T01:42:15.250Z,25.42
2022-11-10T01:45:35.185Z,24.58
2022-11-10T01:48:06.991Z,23.23
2022-11-10T01:50:40.312Z,22.90
2022-11-10T01:53:25.346Z,24.67
2022-11-10T01:56:04.551Z,24.23
2022-11-10T01:59:10.260Z,22.92
2022-11-10T02:01:37.414Z,22.85
2022-11-10T02:04:17.076Z,24.08
2022-11-10T02:06:49.407Z,24.90
2022-11-10T02:09:22.685Z,24.27
2022-11-10T02:11:53.901Z,23.98
2022-11-10T02:14:54.906Z,24.73
2022-11-10T02:18:06.700Z,23.70
2022-11-10T02:21:23.326Z,24.67
2022-11-10T02:23:54.593Z,24.58
2022-11-10T02:27:22.004Z,25.40
2022-11-10T02:30:03.964Z,28.25
2022-11-10T02:32:33.089Z,28.02
2022-11-10T02:35:05.733Z,27.02
2022-11-10T02:37:48.053Z,26.08
2022-11-10T02:40:15.092Z,25.95
2022-11-10T02:42:52.740Z,24.92
2022-11-10T02:45:20.840Z,25.52
2022-11-10T02:47:47.968Z,24.55
2022-11-10T02:50:15.113Z,25.70
2022-11-10T02:52:42.150Z,28.42
2022-11-10T02:55:10.339Z,24.60
2022-11-10T02:58:02.565Z,23.90
2022-11-10T03:00:29.535Z,26.45
2022-11-10T03:03:05.436Z,27.42
2022-11-10T03:05:33.533Z,27.45
2022-11-10T03:08:03.068Z,28.95
2022-11-10T03:10:32.289Z,30.58
2022-11-10T03:13:06.126Z,28.92
2022-11-10T03:15:35.658Z,30.30
2022-11-10T03:18:05.829Z,29.00
2022-11-10T03:20:33.891Z,28.58
2022-11-10T03:23:06.331Z,29.42
2022-11-10T03:25:37.611Z,28.02
2022-11-10T03:28:11.388Z,26.73
2022-11-10T03:30:40.471Z,27.52
2022-11-10T03:33:14.435Z,27.15
2022-11-10T03:35:41.514Z,29.38
2022-11-10T03:38:36.074Z,29.75
2022-11-10T03:41:20.234Z,29.65
2022-11-10T03:43:49.963Z,28.27
2022-11-10T03:46:19.114Z,29.83
2022-11-10T03:48:52.999Z,29.35
2022-11-10T03:51:24.194Z,29.98
2022-11-10T03:53:56.295Z,29.70
2022-11-10T03:56:35.478Z,31.70
2022-11-10T03:59:03.713Z,31.15
2022-11-10T04:01:30.767Z,31.17
2022-11-10T04:03:58.850Z,31.55
2022-11-10T04:06:44.530Z,31.35
2022-11-10T04:09:11.722Z,31.75
2022-11-10T04:11:57.014Z,33.20
2022-11-10T04:14:48.389Z,31.88
2022-11-10T04:17:22.374Z,33.55
2022-11-10T04:19:55.295Z,33.25
2022-11-10T04:22:42.980Z,34.42
2022-11-10T04:25:10.117Z,33.63
2022-11-10T04:27:39.344Z,34.75
2022-11-10T04:30:09.372Z,35.15
2022-11-10T04:32:45.606Z,33.17
2022-11-10T04:35:14.807Z,33.85
2022-11-10T04:37:42.905Z,33.92
2022-11-10T04:40:11.435Z,32.15
2022-11-10T04:42:40.400Z,33.63
2022-11-10T04:45:08.646Z,33.97
2022-11-10T04:47:36.646Z,33.15
2022-11-10T04:50:13.193Z,33.78
2022-11-10T04:52:42.215Z,36.08
2022-11-10T04:55:44.814Z,34.63
2022-11-10T04:58:12.725Z,34.13
2022-11-10T05:00:52.029Z,34.33
2022-11-10T05:03:56.850Z,32.75
2022-11-10T05:06:54.262Z,33.55
2022-11-10T05:09:36.827Z,34.53
2022-11-10T05:12:39.904Z,32.22
2022-11-10T05:15:31.214Z,34.03
2022-11-10T05:18:17.886Z,34.83
2022-11-10T05:21:42.924Z,31.48
2022-11-10T05:27:31.318Z,30.75
2022-11-10T05:30:00.526Z,32.30
2022-11-10T05:32:37.277Z,32.70
2022-11-10T05:35:05.662Z,33.67
2022-11-10T05:37:33.902Z,34.40
2022-11-10T05:40:01.058Z,33.05
2022-11-10T05:42:28.100Z,33.55
2022-11-10T05:44:55.148Z,33.00
2022-11-10T05:47:36.233Z,33.35
2022-11-10T05:50:07.021Z,34.42
2022-11-10T05:52:58.312Z,35.67
2022-11-10T05:55:45.433Z,33.22
2022-11-10T05:59:07.321Z,35.60
2022-11-10T06:01:34.413Z,32.53
2022-11-10T06:04:25.690Z,30.83
2022-11-10T06:06:52.720Z,32.08
2022-11-10T06:09:41.731Z,31.08
2022-11-10T06:12:19.922Z,30.50
2022-11-10T06:15:03.207Z,31.42
2022-11-10T06:17:30.218Z,31.67
2022-11-10T06:20:11.879Z,31.13
2022-11-10T06:23:23.853Z,30.65
2022-11-10T06:25:57.113Z,29.48
2022-11-10T06:28:34.559Z,29.10
2022-11-10T06:31:25.277Z,30.77
2022-11-10T06:33:59.690Z,31.33
2022-11-10T06:36:42.033Z,29.98
2022-11-10T06:39:25.467Z,30.13
2022-11-10T06:41:54.639Z,30.50
2022-11-10T06:44:21.635Z,31.10
2022-11-10T06:46:54.715Z,28.23
2022-11-10T06:49:28.854Z,28.20
2022-11-10T06:52:11.650Z,29.52
2022-11-10T06:55:10.590Z,28.63
2022-11-10T06:57:47.211Z,27.45
2022-11-10T07:00:17.529Z,28.58
2022-11-10T07:03:06.604Z,27.10
2022-11-10T07:05:36.389Z,26.67
2022-11-10T07:08:16.779Z,27.60
2022-11-10T07:10:53.444Z,25.83
2022-11-10T07:13:24.913Z,25.17
2022-11-10T07:15:57.373Z,24.88
2022-11-10T07:18:29.469Z,24.92
2022-11-10T07:21:02.716Z,23.83
2022-11-10T07:23:36.930Z,24.00
2022-11-10T07:26:13.998Z,23.95
2022-11-10T07:28:43.068Z,25.27
2022-11-10T07:31:16.192Z,23.73
2022-11-10T07:34:08.096Z,22.27
2022-11-10T07:36:38.143Z,21.98
2022-11-10T07:39:19.379Z,21.90
2022-11-10T07:41:55.619Z,21.17
2022-11-10T07:44:24.633Z,20.33
2022-11-10T07:47:41.396Z,20.73
2022-11-10T07:50:34.803Z,20.20
2022-11-10T07:53:11.046Z,20.13
2022-11-10T07:55:58.006Z,20.38
2022-11-10T07:58:25.029Z,21.35
2022-11-10T08:00:52.839Z,19.83
2022-11-10T08:03:22.384Z,20.70
2022-11-10T08:05:57.376Z,20.00
2022-11-10T08:08:30.427Z,20.98
2022-11-10T08:10:59.283Z,20.08
2022-11-10T08:13:27.313Z,19.88
2022-11-10T08:15:59.964Z,20.10
2022-11-10T08:18:35.311Z,20.98
2022-11-10T08:21:06.939Z,17.95
2022-11-10T08:23:41.442Z,19.23
2022-11-10T08:26:09.660Z,19.33
2022-11-10T08:28:48.631Z,17.60
2022-11-10T08:31:17.674Z,18.83
2022-11-10T08:33:45.007Z,17.92
2022-11-10T08:36:12.064Z,16.90
2022-11-10T08:38:39.232Z,17.40
2022-11-10T08:41:11.344Z,16.23
2022-11-10T08:43:39.391Z,16.98
2022-11-10T08:46:07.356Z,17.08
2022-11-10T08:48:36.582Z,18.08
2022-11-10T08:51:14.591Z,17.63
2022-11-10T08:53:45.610Z,16.58
2022-11-10T08:56:12.988Z,17.48
2022-11-10T08:58:50.261Z,16.27
2022-11-10T09:01:20.280Z,14.25
2022-11-10T09:03:50.311Z,16.38
2022-11-10T09:06:23.297Z,18.42
2022-11-10T09:08:50.484Z,33.30
2022-11-10T09:11:17.665Z,46.30
2022-11-10T09:13:46.849Z,22.83
2022-11-10T09:16:14.086Z,21.95
2022-11-10T09:18:41.078Z,14.48
2022-11-10T09:21:12.307Z,16.08
2022-11-10T09:23:41.488Z,15.63
2022-11-10T09:26:12.739Z,11.38
2022-11-10T09:29:05.045Z,12.68
2022-11-10T09:31:31.959Z,10.98
2022-11-10T09:34:00.074Z,12.05
2022-11-10T09:36:29.238Z,12.00
2022-11-10T09:39:08.501Z,10.80
2022-11-10T09:41:40.769Z,10.82
2022-11-10T09:44:47.221Z,10.82
2022-11-10T09:48:01.425Z,11.18
2022-11-10T09:50:36.767Z,10.68
2022-11-10T09:53:10.737Z,10.73
2022-11-10T09:55:51.630Z,11.10
2022-11-10T09:58:24.212Z,9.80
2022-11-10T10:01:09.053Z,10.20
2022-11-10T10:03:40.700Z,10.13
2022-11-10T10:06:19.165Z,9.48
2022-11-10T10:09:27.021Z,8.82
2022-11-10T10:12:26.426Z,8.32
2022-11-10T10:15:26.980Z,8.70
2022-11-10T10:18:31.111Z,8.15
2022-11-10T10:21:31.863Z,8.55
2022-11-10T10:24:13.938Z,8.10
2022-11-10T10:26:52.722Z,7.68
2022-11-10T10:29:46.738Z,8.02
2022-11-10T10:32:20.078Z,7.47
2022-11-10T10:34:48.667Z,7.35
2022-11-10T10:37:32.101Z,7.00
2022-11-10T10:40:00.147Z,7.53
2022-11-10T10:42:38.098Z,7.05
2022-11-10T10:45:50.621Z,6.65
2022-11-10T10:48:29.318Z,6.80
2022-11-10T10:50:56.315Z,6.15
2022-11-10T10:53:25.358Z,6.53
2022-11-10T10:56:17.882Z,6.22
2022-11-10T10:58:59.345Z,6.65
2022-11-10T11:01:34.047Z,6.20
2022-11-10T11:04:06.134Z,6.90
2022-11-10T11:06:35.580Z,6.65
2022-11-10T11:09:18.097Z,7.25
2022-11-10T11:11:47.148Z,7.20
2022-11-10T11:14:27.144Z,7.10
2022-11-10T11:17:18.571Z,7.68
2022-11-10T11:19:45.870Z,8.75
2022-11-10T11:23:04.141Z,6.60
2022-11-10T11:25:38.591Z,6.85
2022-11-10T11:28:14.979Z,6.15
2022-11-10T11:31:16.166Z,6.25
2022-11-10T11:34:22.418Z,7.55
2022-11-10T11:37:05.311Z,7.03
2022-11-10T11:40:05.198Z,6.38
2022-11-10T11:42:59.874Z,6.95
2022-11-10T11:45:36.748Z,5.78
2022-11-10T11:48:25.773Z,4.40
2022-11-10T11:51:12.488Z,4.38
2022-11-10T11:54:37.148Z,4.60
2022-11-10T11:57:34.497Z,4.45
2022-11-10T12:00:14.026Z,4.32
2022-11-10T12:03:06.806Z,4.50
2022-11-10T12:05:52.467Z,4.97
2022-11-10T12:09:01.644Z,5.18
2022-11-10T12:11:45.057Z,4.53
2022-11-10T12:14:44.810Z,4.07
2022-11-10T12:17:35.792Z,4.10
2022-11-10T12:20:26.796Z,4.45
2022-11-10T12:23:34.431Z,4.40
2022-11-10T12:26:08.398Z,4.10
2022-11-10T12:28:42.952Z,3.92
2022-11-10T12:31:26.244Z,4.88
2022-11-10T12:34:22.465Z,4.90
2022-11-10T12:36:52.157Z,4.95
2022-11-10T12:39:42.120Z,5.40
2022-11-10T12:42:18.354Z,5.20
2022-11-10T12:45:00.046Z,5.50
2022-11-10T12:47:44.156Z,5.70
2022-11-10T12:50:27.506Z,4.88
2022-11-10T12:53:26.838Z,5.10
2022-11-10T12:56:00.234Z,5.03
2022-11-10T12:58:29.685Z,5.80
2022-11-10T13:01:02.997Z,5.32
2022-11-10T13:03:37.549Z,6.15
2022-11-10T13:06:07.616Z,5.65
2022-11-10T13:08:47.410Z,5.70
2022-11-10T13:11:14.418Z,5.35
2022-11-10T13:14:08.041Z,5.88
2022-11-10T13:16:41.672Z,6.05
2022-11-10T13:19:39.444Z,5.40
2022-11-10T13:22:10.976Z,5.07
2022-11-10T13:24:43.434Z,5.38
2022-11-10T13:27:32.740Z,5.95
2022-11-10T13:30:01.033Z,6.25
2022-11-10T13:32:34.966Z,5.80
2022-11-10T13:35:44.549Z,5.20
2022-11-10T13:38:39.525Z,6.00
2022-11-10T13:41:20.791Z,5.40
2022-11-10T13:43:55.349Z,5.13
2022-11-10T13:46:34.228Z,6.45
2022-11-10T13:49:27.090Z,5.93
2022-11-10T13:52:22.220Z,5.68
2022-11-10T13:55:24.332Z,5.03
2022-11-10T13:58:07.752Z,5.32
2022-11-10T14:00:36.601Z,5.68
2022-11-10T14:03:06.950Z,5.15
2022-11-10T14:05:38.888Z,5.95
2022-11-10T14:08:25.360Z,6.32
2022-11-10T14:11:00.413Z,6.57
2022-11-10T14:13:39.531Z,6.25
2022-11-10T14:16:26.887Z,6.43
2022-11-10T14:19:33.241Z,7.43
2022-11-10T14:22:07.818Z,7.72
2022-11-10T14:24:53.075Z,11.93
2022-11-10T14:27:28.527Z,18.85
2022-11-10T14:30:11.277Z,19.17
2022-11-10T14:32:40.449Z,23.98
2022-11-10T14:35:18.991Z,21.02
2022-11-10T14:37:57.413Z,20.42
2022-11-10T14:40:24.527Z,14.77
2022-11-10T14:42:53.717Z,13.90
2022-11-10T14:45:29.425Z,12.38
2022-11-10T14:48:04.262Z,14.68
2022-11-10T14:50:36.275Z,12.10
2022-11-10T14:53:12.635Z,10.93
2022-11-10T14:55:44.705Z,10.85
2022-11-10T14:58:46.455Z,11.88
2022-11-10T15:02:00.809Z,11.05
2022-11-10T15:05:26.947Z,11.27
2022-11-10T15:07:56.945Z,9.38
2022-11-10T15:10:27.663Z,8.40
2022-11-10T15:13:06.208Z,8.85
2022-11-10T15:15:34.235Z,9.23
2022-11-10T15:18:23.853Z,10.52
2022-11-10T15:21:19.894Z,11.93
2022-11-10T15:23:59.450Z,12.43
2022-11-10T15:26:30.163Z,17.80
2022-11-10T15:29:02.738Z,30.50
2022-11-10T15:31:33.722Z,26.73
2022-11-10T15:34:06.820Z,25.60
2022-11-10T15:36:39.939Z,27.75
2022-11-10T15:39:14.226Z,22.50
2022-11-10T15:41:46.827Z,23.75
2022-11-10T15:44:32.873Z,22.65
2022-11-10T15:46:59.974Z,20.48
2022-11-10T15:49:31.532Z,17.67
2022-11-10T15:52:06.188Z,16.65
2022-11-10T15:54:36.781Z,17.83
2022-11-10T15:57:14.164Z,18.95
2022-11-10T15:59:42.656Z,18.38
2022-11-10T16:02:20.150Z,20.48
2022-11-10T16:04:49.301Z,20.45
2022-11-10T16:07:18.156Z,19.38
2022-11-10T16:09:45.372Z,20.48
2022-11-10T16:12:22.810Z,19.02
2022-11-10T16:14:53.189Z,23.50
2022-11-10T16:17:23.266Z,25.65
2022-11-10T16:19:50.326Z,26.83
2022-11-10T16:22:19.905Z,26.02
2022-11-10T16:24:47.216Z,24.88
2022-11-10T16:27:17.160Z,23.40
2022-11-10T16:29:44.337Z,22.55
2022-11-10T16:32:12.566Z,21.58
2022-11-10T16:34:42.942Z,22.88
2022-11-10T16:37:12.975Z,20.80
2022-11-10T16:39:41.152Z,22.10
2022-11-10T16:42:10.325Z,20.95
2022-11-10T16:44:42.442Z,16.80
2022-11-10T16:47:20.862Z,16.48
2022-11-10T16:49:53.381Z,15.27
2022-11-10T16:52:21.809Z,13.57
2022-11-10T16:54:48.968Z,11.73
2022-11-10T16:57:18.144Z,11.70
2022-11-10T16:59:46.153Z,12.07
2022-11-10T17:02:26.400Z,11.27
2022-11-10T17:04:55.847Z,11.30
2022-11-10T17:07:26.429Z,11.23
2022-11-10T17:09:57.752Z,12.43
2022-11-10T17:12:24.838Z,12.40
2022-11-10T17:14:52.871Z,11.85
2022-11-10T17:17:26.728Z,11.98
2022-11-10T17:20:06.534Z,14.20
2022-11-10T17:22:36.657Z,12.23
2022-11-10T17:25:05.562Z,13.80
2022-11-10T17:27:37.723Z,11.95
2022-11-10T17:30:05.350Z,13.23
2022-11-10T17:33:03.053Z,13.18
2022-11-10T17:35:25.251Z,13.27
2022-11-10T17:37:55.949Z,13.73
2022-11-10T17:40:25.361Z,14.10
2022-11-10T17:42:54.565Z,23.55
2022-11-10T17:45:31.640Z,20.83
2022-11-10T17:48:23.412Z,18.02
2022-11-10T17:50:53.013Z,17.58
2022-11-10T17:53:29.280Z,15.90
2022-11-10T17:55:57.982Z,16.27
2022-11-10T17:58:26.066Z,16.25
2022-11-10T18:00:56.589Z,17.95
2022-11-10T18:03:25.482Z,17.98
2022-11-10T18:05:55.060Z,18.73
2022-11-10T18:08:22.070Z,16.85
2022-11-10T18:10:53.712Z,16.35
2022-11-10T18:13:27.365Z,15.15
2022-11-10T18:18:37.258Z,16.58
2022-11-10T18:21:06.571Z,16.40
2022-11-10T18:23:34.075Z,15.45
2022-11-10T18:26:09.110Z,17.67
2022-11-10T18:28:43.564Z,16.13
2022-11-10T18:31:13.571Z,17.73
2022-11-10T18:33:41.761Z,20.45
2022-11-10T18:36:09.631Z,19.17
2022-11-10T18:38:38.964Z,18.58
2022-11-10T18:41:25.915Z,17.58
2022-11-10T18:43:55.429Z,16.40
2022-11-10T18:46:30.696Z,16.80
2022-11-10T18:48:58.419Z,16.35
2022-11-10T18:51:27.554Z,17.73
2022-11-10T18:53:59.343Z,17.67
2022-11-10T18:56:28.889Z,17.58
2022-11-10T18:58:58.346Z,17.42
2022-11-10T19:01:42.327Z,17.48
2022-11-10T19:06:49.031Z,20.98
2022-11-10T19:09:16.601Z,24.58
2022-11-10T19:11:45.376Z,26.83
2022-11-10T19:14:14.990Z,28.88
2022-11-10T19:16:44.201Z,27.95
2022-11-10T19:19:12.810Z,26.67
2022-11-10T19:21:40.862Z,26.15
2022-11-10T19:24:28.046Z,25.02
2022-11-10T19:26:56.545Z,21.83
2022-11-10T19:29:24.042Z,22.35
2022-11-10T19:31:51.726Z,22.27
2022-11-10T19:34:22.195Z,21.10
2022-11-10T19:36:54.965Z,22.52
2022-11-10T19:39:23.890Z,22.83
2022-11-10T19:41:52.587Z,23.55
2022-11-10T19:44:20.925Z,23.15
2022-11-10T19:46:47.971Z,23.88
2022-11-10T19:52:23.649Z,22.83
2022-11-10T19:54:52.277Z,22.77
2022-11-10T19:57:19.889Z,23.42
2022-11-10T19:59:49.280Z,22.77
2022-11-10T20:02:19.359Z,22.80
2022-11-10T20:05:09.101Z,23.83
2022-11-10T20:07:55.094Z,25.83
2022-11-10T20:10:24.128Z,25.83
2022-11-10T20:12:51.484Z,23.85
2022-11-10T20:15:18.842Z,24.10
2022-11-10T20:17:46.402Z,23.20
2022-11-10T20:20:14.421Z,23.08
2022-11-10T20:22:41.867Z,21.80
2022-11-10T20:25:09.573Z,20.58
2022-11-10T20:27:36.836Z,18.98
2022-11-10T20:30:05.955Z,18.60
2022-11-10T20:32:42.331Z,18.17
2022-11-10T20:35:18.668Z,18.15
2022-11-10T20:37:45.976Z,18.42
2022-11-10T20:40:42.374Z,18.25
2022-11-10T20:43:02.800Z,17.98
2022-11-10T20:45:39.314Z,17.95
2022-11-10T20:48:16.637Z,18.48
2022-11-10T20:50:44.480Z,16.92
2022-11-10T20:53:12.013Z,18.45
2022-11-10T20:55:58.954Z,16.98
2022-11-10T20:58:26.734Z,16.70
2022-11-10T21:01:04.505Z,17.60
2022-11-10T21:03:38.381Z,17.70
2022-11-10T21:06:08.283Z,17.08
2022-11-10T21:08:37.829Z,18.27
2022-11-10T21:11:47.961Z,18.83
2022-11-10T21:14:44.759Z,19.75
2022-11-10T21:17:18.680Z,18.08
2022-11-10T21:19:55.430Z,18.85
2022-11-10T21:22:28.783Z,18.20
2022-11-10T21:24:57.968Z,18.60
2022-11-10T21:27:29.110Z,18.63
2022-11-10T21:29:58.959Z,18.25
2022-11-10T21:32:33.459Z,18.10
2022-11-10T21:35:07.344Z,17.52
2022-11-10T21:37:35.462Z,17.65
2022-11-10T21:40:02.519Z,17.77
2022-11-10T21:42:35.847Z,18.63
2022-11-10T21:45:04.269Z,18.33
2022-11-10T21:47:31.240Z,21.33
2022-11-10T21:50:06.020Z,19.25
2022-11-10T21:52:43.215Z,18.98
2022-11-10T21:55:10.988Z,19.50
2022-11-10T21:57:58.227Z,20.00
2022-11-10T22:00:26.279Z,20.95
2022-11-10T22:02:58.773Z,20.38
2022-11-10T22:05:28.651Z,20.40
2022-11-10T22:07:56.754Z,20.35
2022-11-10T22:10:47.343Z,19.58
2022-11-10T22:13:44.732Z,20.38
2022-11-10T22:17:02.547Z,20.35
2022-11-10T22:19:29.822Z,19.58
2022-11-10T22:22:03.994Z,19.83
2022-11-10T22:24:37.377Z,22.15
2022-11-10T22:27:13.682Z,21.20
2022-11-10T22:29:40.792Z,20.70
2022-11-10T22:32:10.001Z,21.45
2022-11-10T22:34:38.175Z,22.13
2022-11-10T22:37:14.243Z,21.83
2022-11-10T22:40:05.779Z,22.40
2022-11-10T22:43:00.240Z,21.42
2022-11-10T22:45:35.304Z,20.80
2022-11-10T22:48:27.008Z,22.33
2022-11-10T22:50:57.695Z,21.73
2022-11-10T22:53:39.027Z,22.90
2022-11-10T22:56:06.309Z,21.58
2022-11-10T22:58:34.390Z,23.13
2022-11-10T23:01:09.505Z,22.52
2022-11-10T23:03:38.906Z,22.48
2022-11-10T23:06:09.123Z,21.58
2022-11-10T23:08:38.321Z,21.60
2022-11-10T23:11:12.801Z,21.35
2022-11-10T23:13:44.022Z,21.48
2022-11-10T23:16:14.882Z,21.58
2022-11-10T23:18:45.467Z,21.35
2022-11-10T23:21:15.412Z,23.23
2022-11-10T23:23:49.401Z,23.02
2022-11-10T23:26:23.388Z,25.02
2022-11-10T23:28:53.661Z,24.58
2022-11-10T23:31:23.596Z,25.00
2022-11-10T23:33:55.745Z,23.88
2022-11-10T23:36:25.061Z,24.55
2022-11-10T23:38:58.532Z,23.52
2022-11-10T23:41:31.819Z,23.50
2022-11-10T23:44:08.823Z,22.77
2022-11-10T23:46:40.882Z,21.55
2022-11-10T23:49:07.910Z,22.35
2022-11-10T23:51:37.117Z,22.42
2022-11-10T23:54:13.348Z,22.73
2022-11-10T23:56:46.332Z,22.58
2022-11-10T23:59:20.330Z,23.55
